Time;durP1;ratioP1;P1;durP2;ratioP2;P2;SDS_P1;SDS_P2;PMS_P1;PMS_P2;Temp;Humidity;BMP_temperature;BMP_pressure;BME280_temperature;BME280_humidity;BME280_pressure;Samples;Min_cycle;Max_cycle;Signal;HPM_P1;HPM_P2
2022/06/14 00:03:03;;;;;;;7.40;3.60;;;12.90;99.90;;;;;;5070125;28;20817;-69
2022/06/14 00:05:31;;;;;;;4.40;3.80;;;12.90;99.90;;;;;;5069970;28;21003;-69
2022/06/14 00:07:58;;;;;;;3.97;3.57;;;12.80;99.90;;;;;;5069690;28;20482;-68
2022/06/14 00:10:25;;;;;;;6.90;4.97;;;12.80;99.90;;;;;;5069917;28;20465;-69
2022/06/14 00:12:52;;;;;;;5.80;4.23;;;12.80;99.90;;;;;;5070168;28;20478;-69
2022/06/14 00:15:19;;;;;;;4.63;3.83;;;12.80;99.90;;;;;;5070147;28;20462;-69
2022/06/14 00:17:46;;;;;;;4.77;4.03;;;12.80;99.90;;;;;;5069598;28;21064;-68
2022/06/14 00:20:13;;;;;;;5.37;4.90;;;12.80;99.90;;;;;;5069255;28;20458;-69
2022/06/14 00:22:41;;;;;;;5.57;4.00;;;12.80;99.90;;;;;;5069964;28;20803;-70
2022/06/14 00:25:16;;;;;;;6.90;4.33;;;12.70;99.90;;;;;;5070001;28;20458;-69
2022/06/14 00:27:43;;;;;;;5.93;4.13;;;12.70;99.90;;;;;;5069945;28;20482;-69
2022/06/14 00:30:11;;;;;;;4.47;3.57;;;12.60;99.90;;;;;;5068965;28;20462;-69
2022/06/14 00:32:38;;;;;;;6.23;3.70;;;12.60;99.90;;;;;;5069837;28;20489;-69
2022/06/14 00:35:05;;;;;;;5.40;4.30;;;12.50;99.90;;;;;;5069581;28;20462;-69
2022/06/14 00:37:31;;;;;;;5.27;3.97;;;12.50;99.90;;;;;;5070073;28;21174;-68
2022/06/14 00:39:59;;;;;;;5.00;3.63;;;12.40;99.90;;;;;;5069968;28;20498;-69
2022/06/14 00:42:26;;;;;;;4.70;4.00;;;12.40;99.90;;;;;;5073500;28;20466;-69
2022/06/14 00:45:22;;;;;;;6.23;4.17;;;12.40;99.90;;;;;;5073358;28;20477;-69
2022/06/14 00:47:52;;;;;;;5.27;4.03;;;12.40;99.90;;;;;;5072797;28;20482;-69
2022/06/14 00:50:23;;;;;;;6.80;4.43;;;12.40;99.90;;;;;;5073065;28;20490;-68
2022/06/14 00:52:55;;;;;;;6.20;4.33;;;12.40;99.90;;;;;;5072917;28;20497;-68
2022/06/14 00:55:27;;;;;;;6.07;4.60;;;12.30;99.90;;;;;;5073339;28;20825;-70
2022/06/14 00:57:56;;;;;;;6.03;4.70;;;12.30;99.90;;;;;;5072753;28;20482;-70
2022/06/14 01:00:27;;;;;;;6.70;4.90;;;12.30;99.90;;;;;;5072832;28;20463;-69
2022/06/14 01:02:57;;;;;;;5.23;4.20;;;12.30;99.90;;;;;;5073194;28;20490;-69
2022/06/14 01:06:05;;;;;;;4.93;3.93;;;12.30;99.90;;;;;;5072912;28;20461;-70
2022/06/14 01:08:18;;;;;;;7.00;4.23;;;12.30;99.90;;;;;;5072483;28;20566;-70
2022/06/14 01:10:47;;;;;;;6.30;4.53;;;12.30;99.90;;;;;;5072783;28;20465;-70
2022/06/14 01:13:16;;;;;;;5.57;4.00;;;12.30;99.90;;;;;;5073078;28;20483;-70
2022/06/14 01:15:44;;;;;;;6.27;4.57;;;12.30;99.90;;;;;;5072793;28;20462;-69
2022/06/14 01:18:13;;;;;;;5.90;3.97;;;12.20;99.90;;;;;;5071782;28;20504;-68
2022/06/14 01:20:40;;;;;;;5.43;4.03;;;12.20;99.90;;;;;;5072900;28;20501;-69
2022/06/14 01:23:11;;;;;;;5.70;4.60;;;12.10;99.90;;;;;;5072388;28;20459;-69
2022/06/14 01:25:42;;;;;;;6.63;4.30;;;12.20;99.90;;;;;;5072817;28;20455;-69
2022/06/14 01:28:10;;;;;;;7.20;4.80;;;12.20;99.90;;;;;;5071395;28;20482;-69
2022/06/14 01:30:42;;;;;;;5.83;4.30;;;12.10;99.90;;;;;;5072498;28;20469;-69
2022/06/14 01:33:14;;;;;;;5.23;4.73;;;12.10;99.90;;;;;;5072443;28;20479;-69
2022/06/14 01:35:45;;;;;;;4.87;4.37;;;12.10;99.90;;;;;;5072074;28;20458;-69
2022/06/14 01:38:15;;;;;;;6.93;4.80;;;12.10;99.90;;;;;;5071623;28;20562;-68
2022/06/14 01:40:50;;;;;;;6.03;4.90;;;12.00;99.90;;;;;;5072084;28;20848;-69
2022/06/14 01:43:47;;;;;;;6.63;5.03;;;12.00;99.90;;;;;;5072256;28;20458;-69
2022/06/14 01:46:23;;;;;;;7.07;4.53;;;12.00;99.90;;;;;;5071843;28;20842;-69
2022/06/14 01:51:50;;;;;;;7.40;4.73;;;12.00;99.90;;;;;;5071869;28;20458;-69
2022/06/14 01:51:52;;;;;;;5.97;4.50;;;12.00;99.90;;;;;;5071397;28;20553;-70
2022/06/14 01:54:25;;;;;;;7.37;5.20;;;11.90;99.90;;;;;;5072178;28;20965;-68
2022/06/14 01:57:04;;;;;;;5.95;4.45;;;11.90;99.90;;;;;;5071832;28;20486;-69
2022/06/14 01:59:41;;;;;;;5.80;4.90;;;11.80;99.90;;;;;;5071198;28;20208;-70
2022/06/14 02:02:13;;;;;;;5.20;4.37;;;11.80;99.90;;;;;;5071704;28;20536;-69
2022/06/14 02:04:45;;;;;;;7.10;4.77;;;11.80;99.90;;;;;;5071663;28;20493;-69
2022/06/14 02:07:24;;;;;;;8.63;5.20;;;11.70;99.90;;;;;;5071906;28;20502;-69
2022/06/14 02:09:59;;;;;;;6.05;4.90;;;11.80;99.90;;;;;;5070939;28;20465;-68
2022/06/14 02:12:35;;;;;;;6.43;4.63;;;11.70;99.90;;;;;;5071949;28;20238;-70
2022/06/14 02:15:10;;;;;;;6.65;5.10;;;11.70;99.90;;;;;;5071379;28;20469;-69
2022/06/14 02:17:42;;;;;;;5.97;4.60;;;11.70;99.90;;;;;;5071488;28;20254;-68
2022/06/14 02:20:14;;;;;;;5.10;4.60;;;11.70;99.90;;;;;;5070857;28;20832;-69
2022/06/14 02:22:43;;;;;;;7.70;4.97;;;11.60;99.90;;;;;;5071166;28;20286;-70
2022/06/14 02:25:15;;;;;;;6.43;5.50;;;11.70;99.90;;;;;;5071287;28;20458;-69
2022/06/14 02:27:47;;;;;;;5.33;4.57;;;11.60;99.90;;;;;;5071102;28;20216;-69
2022/06/14 02:30:17;;;;;;;6.37;5.70;;;11.60;99.90;;;;;;5070651;28;20462;-69
2022/06/14 02:32:46;;;;;;;5.87;4.93;;;11.50;99.90;;;;;;5071234;28;20853;-68
2022/06/14 02:35:19;;;;;;;6.13;4.33;;;11.50;99.90;;;;;;5070989;28;20459;-70
2022/06/14 02:37:52;;;;;;;7.93;5.33;;;11.50;99.90;;;;;;5071099;28;20485;-70
2022/06/14 02:40:24;;;;;;;7.60;4.82;;;11.40;99.90;;;;;;5070644;28;20862;-69
2022/06/14 02:42:55;;;;;;;7.93;4.90;;;11.50;99.90;;;;;;5071081;28;20197;-70
2022/06/14 02:45:25;;;;;;;5.57;4.45;;;11.40;99.90;;;;;;5070604;28;20466;-70
2022/06/14 02:47:59;;;;;;;5.03;4.50;;;11.40;99.90;;;;;;5070697;28;20231;-70
2022/06/14 02:50:31;;;;;;;5.40;4.90;;;11.40;99.90;;;;;;5070943;28;20208;-70
2022/06/14 02:53:03;;;;;;;6.13;5.17;;;11.40;99.90;;;;;;5070437;28;20597;-69
2022/06/14 02:55:36;;;;;;;5.72;4.85;;;11.30;99.90;;;;;;5071049;28;20819;-68
2022/06/14 02:58:10;;;;;;;8.05;6.10;;;11.30;99.90;;;;;;5069715;28;20233;-70
2022/06/14 03:00:40;;;;;;;5.57;4.53;;;11.30;99.90;;;;;;5071177;28;20214;-70
2022/06/14 03:03:14;;;;;;;6.07;4.88;;;11.30;99.90;;;;;;5070229;28;20461;-69
2022/06/14 03:05:46;;;;;;;5.10;4.70;;;11.20;99.90;;;;;;5081429;28;20206;-69
2022/06/14 03:08:18;;;;;;;6.18;4.65;;;11.20;99.90;;;;;;5088426;28;20211;-70
2022/06/14 03:11:05;;;;;;;6.07;4.77;;;11.20;99.90;;;;;;5090625;28;20206;-69
2022/06/14 03:13:39;;;;;;;7.50;5.10;;;11.20;99.90;;;;;;5090870;28;20491;-69
2022/06/14 03:16:19;;;;;;;7.35;5.30;;;11.20;99.90;;;;;;5090204;28;20223;-70
2022/06/14 03:18:52;;;;;;;5.90;4.78;;;11.10;99.90;;;;;;5090308;28;20261;-70
2022/06/14 03:21:23;;;;;;;6.63;5.10;;;11.10;99.90;;;;;;5090359;28;20541;-69
2022/06/14 03:23:55;;;;;;;6.18;4.90;;;11.10;99.90;;;;;;5090682;28;20554;-69
2022/06/14 03:26:31;;;;;;;7.47;5.05;;;11.00;99.90;;;;;;5090268;28;20219;-70
2022/06/14 03:29:03;;;;;;;6.72;4.85;;;11.10;99.90;;;;;;5089845;28;20204;-69
2022/06/14 03:31:36;;;;;;;7.72;6.03;;;11.00;99.90;;;;;;5090720;28;20199;-70
2022/06/14 03:34:09;;;;;;;6.60;5.40;;;11.00;99.90;;;;;;5088558;28;20230;-69
2022/06/14 03:36:36;;;;;;;6.95;4.90;;;11.00;99.90;;;;;;5059179;28;20213;-70
2022/06/14 03:39:07;;;;;;;5.78;5.07;;;11.10;99.90;;;;;;5058609;28;20680;-70
2022/06/14 03:41:38;;;;;;;7.40;5.20;;;11.00;99.90;;;;;;5060802;28;20188;-70
2022/06/14 03:44:06;;;;;;;7.28;5.68;;;11.00;99.90;;;;;;5060525;28;20189;-69
2022/06/14 03:46:35;;;;;;;9.43;5.55;;;11.00;99.90;;;;;;5059232;28;20224;-68
2022/06/14 03:49:10;;;;;;;6.35;5.22;;;11.00;99.90;;;;;;5058412;28;20199;-69
2022/06/14 03:51:48;;;;;;;8.60;5.30;;;11.00;99.90;;;;;;5059977;28;20591;-67
2022/06/14 03:54:36;;;;;;;6.90;5.45;;;11.00;99.90;;;;;;5059320;28;20205;-70
2022/06/14 03:57:16;;;;;;;5.88;4.80;;;11.10;99.90;;;;;;5049129;28;20217;-69
2022/06/14 04:00:07;;;;;;;5.80;5.10;;;11.10;99.90;;;;;;5049265;28;20197;-70
2022/06/14 04:02:56;;;;;;;8.52;5.57;;;11.10;99.90;;;;;;5053442;28;20276;-70
2022/06/14 04:05:38;;;;;;;6.03;5.30;;;11.10;99.90;;;;;;5060002;28;20197;-70
2022/06/14 04:08:26;;;;;;;10.05;5.10;;;11.10;99.90;;;;;;5048736;28;20224;-69
2022/06/14 04:11:03;;;;;;;6.55;5.15;;;11.20;99.90;;;;;;5050281;28;20208;-70
2022/06/14 04:13:38;;;;;;;7.72;5.50;;;11.20;99.90;;;;;;5052922;28;20217;-69
2022/06/14 04:16:11;;;;;;;6.70;5.60;;;11.30;99.90;;;;;;5062535;28;20227;-69
2022/06/14 04:18:46;;;;;;;5.68;4.75;;;11.30;99.90;;;;;;5063548;28;20201;-68
2022/06/14 04:21:28;;;;;;;6.93;4.85;;;11.40;99.90;;;;;;5062930;28;20199;-69
2022/06/14 04:24:01;;;;;;;10.47;4.97;;;11.40;99.90;;;;;;5063126;28;20189;-69
2022/06/14 04:26:35;;;;;;;6.20;4.43;;;11.50;99.90;;;;;;5062153;28;20482;-70
2022/06/14 04:29:12;;;;;;;9.52;4.80;;;11.50;99.90;;;;;;5066785;28;20283;-69
2022/06/14 04:31:42;;;;;;;6.70;4.67;;;11.60;99.90;;;;;;5072787;28;20200;-70
2022/06/14 04:34:14;;;;;;;6.30;5.35;;;11.60;99.90;;;;;;5073989;28;20478;-70
2022/06/14 04:36:47;;;;;;;8.95;5.15;;;11.60;99.90;;;;;;5073867;28;20707;-70
2022/06/14 04:39:19;;;;;;;7.70;4.73;;;11.60;99.90;;;;;;5073433;28;20424;-70
2022/06/14 04:41:51;;;;;;;5.40;4.90;;;11.70;99.90;;;;;;5074139;28;20536;-70
2022/06/14 04:44:25;;;;;;;7.55;5.30;;;11.80;99.90;;;;;;5073858;28;20201;-70
2022/06/14 04:46:55;;;;;;;8.48;5.50;;;11.80;99.90;;;;;;5074345;28;20217;-69
2022/06/14 04:49:27;;;;;;;8.53;5.60;;;11.90;99.90;;;;;;5073705;28;20227;-74
2022/06/14 04:51:58;;;;;;;6.47;5.30;;;12.00;99.90;;;;;;5073452;28;20458;-73
2022/06/14 04:54:31;;;;;;;6.90;5.07;;;12.00;99.90;;;;;;5073481;28;20489;-69
2022/06/14 04:57:03;;;;;;;9.80;6.00;;;12.10;99.90;;;;;;5073456;28;20845;-70
2022/06/14 04:59:36;;;;;;;5.50;4.93;;;12.10;99.90;;;;;;5072799;28;20466;-69
2022/06/14 05:02:09;;;;;;;9.40;5.77;;;12.20;99.90;;;;;;5072730;28;20463;-70
2022/06/14 05:04:41;;;;;;;7.80;5.18;;;12.30;99.90;;;;;;5073030;28;20972;-71
2022/06/14 05:07:11;;;;;;;6.13;5.37;;;12.40;99.90;;;;;;5157120;22;20232;-73
2022/06/14 05:09:48;;;;;;;8.20;5.03;;;12.50;99.90;;;;;;5071703;28;20636;-73
2022/06/14 05:12:19;;;;;;;7.07;5.43;;;12.70;99.90;;;;;;5072588;28;20768;-73
2022/06/14 05:14:51;;;;;;;5.60;4.80;;;12.80;99.90;;;;;;5072998;28;20462;-74
2022/06/14 05:17:23;;;;;;;8.50;5.33;;;12.90;99.90;;;;;;5059299;28;20490;-74
2022/06/14 05:19:54;;;;;;;7.57;5.47;;;13.00;99.90;;;;;;5052238;28;20460;-75
2022/06/14 05:22:26;;;;;;;8.07;5.60;;;13.10;99.90;;;;;;5052413;28;20468;-75
2022/06/14 05:24:53;;;;;;;7.13;5.97;;;13.20;99.90;;;;;;5052676;28;20509;-74
2022/06/14 05:27:42;;;;;;;8.50;7.47;;;13.30;99.90;;;;;;5051047;28;20482;-74
2022/06/14 05:30:18;;;;;;;9.70;5.80;;;13.50;99.90;;;;;;5051866;28;20459;-74
2022/06/14 05:32:53;;;;;;;6.40;4.90;;;13.60;99.90;;;;;;5052399;28;20522;-74
2022/06/14 05:35:29;;;;;;;6.77;5.30;;;13.70;99.90;;;;;;5052617;28;20455;-73
2022/06/14 05:38:03;;;;;;;7.60;5.80;;;13.80;99.90;;;;;;5051954;28;20486;-75
2022/06/14 05:40:36;;;;;;;9.00;6.40;;;13.90;99.90;;;;;;5052667;28;20467;-75
2022/06/14 05:43:09;;;;;;;8.73;5.33;;;14.00;99.90;;;;;;5052389;28;20459;-74
2022/06/14 05:45:42;;;;;;;8.47;6.13;;;14.10;99.90;;;;;;5055344;28;20467;-75
2022/06/14 05:48:12;;;;;;;7.20;6.20;;;14.20;99.90;;;;;;5055155;28;20490;-74
2022/06/14 05:50:42;;;;;;;6.93;5.57;;;14.30;99.90;;;;;;5052072;28;20636;-75
2022/06/14 05:53:26;;;;;;;8.87;6.50;;;14.40;99.90;;;;;;5052170;28;20865;-75
2022/06/14 05:55:56;;;;;;;8.20;6.40;;;14.40;99.90;;;;;;5052221;28;20832;-74
2022/06/14 05:58:31;;;;;;;8.20;6.10;;;14.40;99.90;;;;;;5049581;28;20474;-79
2022/06/14 06:01:04;;;;;;;8.20;5.70;;;14.50;99.90;;;;;;5050050;28;20505;-73
2022/06/14 06:03:35;;;;;;;11.40;6.70;;;14.50;99.90;;;;;;5051241;28;20530;-77
2022/06/14 06:06:08;;;;;;;7.10;5.60;;;14.60;99.90;;;;;;5049551;28;20954;-72
2022/06/14 06:08:40;;;;;;;8.43;5.77;;;14.70;99.90;;;;;;5049853;28;20566;-73
2022/06/14 06:11:11;;;;;;;8.60;5.70;;;14.70;99.90;;;;;;5050178;28;20466;-78
2022/06/14 06:13:42;;;;;;;8.57;5.70;;;14.80;99.90;;;;;;5050570;28;20487;-75
2022/06/14 06:16:15;;;;;;;8.20;6.10;;;14.90;99.90;;;;;;5050326;28;20497;-74
2022/06/14 06:18:45;;;;;;;10.53;6.23;;;15.00;99.90;;;;;;5050025;28;21025;-73
2022/06/14 06:21:19;;;;;;;8.33;5.80;;;15.10;99.90;;;;;;5049896;28;20463;-74
2022/06/14 06:23:53;;;;;;;8.97;5.77;;;15.10;99.90;;;;;;5050929;28;20452;-77
2022/06/14 06:26:24;;;;;;;5.30;4.50;;;15.20;99.90;;;;;;5050370;28;21152;-76
2022/06/14 06:28:57;;;;;;;6.33;5.47;;;15.30;99.90;;;;;;5049916;28;20467;-78
2022/06/14 06:31:30;;;;;;;8.23;5.30;;;15.40;99.90;;;;;;5050497;28;20467;-79
2022/06/14 06:34:03;;;;;;;7.23;4.30;;;15.50;99.90;;;;;;5053887;28;20500;-81
2022/06/14 06:36:49;;;;;;;7.13;5.20;;;15.60;99.90;;;;;;5050035;28;21005;-75
2022/06/14 06:39:33;;;;;;;10.70;5.50;;;15.70;99.90;;;;;;5049762;28;20877;-77
2022/06/14 06:42:06;;;;;;;5.10;4.60;;;15.80;99.90;;;;;;5050998;28;20466;-80
2022/06/14 06:44:39;;;;;;;7.20;4.60;;;15.90;99.90;;;;;;5060825;28;20458;-73
2022/06/14 06:47:14;;;;;;;6.33;4.60;;;16.00;99.90;;;;;;5069673;28;20849;-72
2022/06/14 06:49:53;;;;;;;5.87;4.93;;;16.10;99.90;;;;;;5069247;28;20514;-74
2022/06/14 06:52:24;;;;;;;8.93;4.80;;;16.20;99.90;;;;;;5069205;28;20469;-75
2022/06/14 06:54:56;;;;;;;5.27;4.77;;;16.30;99.90;;;;;;5069827;28;20478;-72
2022/06/14 06:57:27;;;;;;;7.77;5.00;;;16.30;99.90;;;;;;5069285;28;20843;-76
2022/06/14 06:59:56;;;;;;;10.60;4.40;;;16.40;99.90;;;;;;5068769;28;20964;-76
2022/06/14 07:02:30;;;;;;;6.37;5.17;;;16.50;99.90;;;;;;5070513;28;20469;-76
2022/06/14 07:05:04;;;;;;;6.70;4.53;;;16.50;99.90;;;;;;5069733;28;20964;-76
2022/06/14 07:07:36;;;;;;;11.97;4.60;;;16.60;99.90;;;;;;5070189;28;20490;-77
2022/06/14 07:10:07;;;;;;;7.37;5.03;;;16.60;99.90;;;;;;5069312;28;20459;-73
2022/06/14 07:12:41;;;;;;;6.43;4.80;;;16.70;99.90;;;;;;5068196;28;20457;-74
2022/06/14 07:15:17;;;;;;;7.03;5.03;;;16.80;99.90;;;;;;5070002;28;20573;-73
2022/06/14 07:17:49;;;;;;;7.83;4.43;;;16.80;99.90;;;;;;5071394;28;20500;-76
2022/06/14 07:20:29;;;;;;;5.70;4.80;;;16.90;99.90;;;;;;5069392;28;20458;-75
2022/06/14 07:23:00;;;;;;;5.67;5.10;;;17.00;99.90;;;;;;5071711;28;20465;-77
2022/06/14 07:25:32;;;;;;;5.43;4.33;;;17.10;99.90;;;;;;5073202;28;20485;-76
2022/06/14 07:28:05;;;;;;;5.27;4.47;;;17.20;99.90;;;;;;5070344;28;20478;-76
2022/06/14 07:30:36;;;;;;;11.10;4.50;;;17.20;99.90;;;;;;5070030;28;20469;-75
2022/06/14 07:33:05;;;;;;;4.33;3.70;;;17.30;99.90;;;;;;5070074;28;20462;-74
2022/06/14 07:35:40;;;;;;;8.23;5.37;;;17.30;99.90;;;;;;5070469;28;20463;-82
2022/06/14 07:38:16;;;;;;;5.20;4.60;;;17.40;99.90;;;;;;5071358;28;20489;-79
2022/06/14 07:40:49;;;;;;;7.07;4.60;;;17.50;99.90;;;;;;5072852;28;20458;-80
2022/06/14 07:43:23;;;;;;;6.33;4.70;;;17.50;99.90;;;;;;5070444;28;20463;-73
2022/06/14 07:45:51;;;;;;;6.20;4.50;;;17.60;99.90;;;;;;5070917;28;21026;-76
2022/06/14 07:48:25;;;;;;;5.47;4.13;;;17.60;99.90;;;;;;5070512;28;20462;-76
2022/06/14 07:50:58;;;;;;;4.27;3.37;;;17.70;99.90;;;;;;5072526;28;20961;-73
2022/06/14 07:53:33;;;;;;;6.30;4.30;;;17.80;99.90;;;;;;5074448;28;20488;-73
2022/06/14 07:56:06;;;;;;;5.00;4.40;;;18.00;99.90;;;;;;5074073;28;20464;-75
2022/06/14 07:58:38;;;;;;;7.10;4.53;;;18.10;99.90;;;;;;5072867;28;20466;-75
2022/06/14 08:01:10;;;;;;;6.80;4.30;;;18.20;99.90;;;;;;5073741;28;20458;-75
2022/06/14 08:03:41;;;;;;;7.03;4.10;;;18.20;99.90;;;;;;5074054;28;20458;-76
2022/06/14 08:06:12;;;;;;;4.97;4.20;;;18.40;99.90;;;;;;5073200;28;20505;-76
2022/06/14 08:08:44;;;;;;;9.67;4.20;;;18.40;99.90;;;;;;5073985;28;20465;-75
2022/06/14 08:11:18;;;;;;;7.73;4.73;;;18.40;99.90;;;;;;5074211;28;20450;-73
2022/06/14 08:13:50;;;;;;;7.40;4.20;;;18.50;99.90;;;;;;5074110;28;20857;-72
2022/06/14 08:16:19;;;;;;;17.03;5.00;;;18.70;99.90;;;;;;5075167;28;20504;-74
2022/06/14 08:18:51;;;;;;;8.03;4.57;;;18.80;99.90;;;;;;5074900;28;20497;-72
2022/06/14 08:21:32;;;;;;;5.83;4.40;;;19.00;99.90;;;;;;5074745;28;20461;-75
2022/06/14 08:24:09;;;;;;;8.37;5.00;;;19.10;99.90;;;;;;5074155;28;20450;-73
2022/06/14 08:26:42;;;;;;;7.07;3.93;;;19.20;99.90;;;;;;5073981;28;20473;-73
2022/06/14 08:29:14;;;;;;;4.57;3.90;;;19.30;99.90;;;;;;5074481;28;20807;-74
2022/06/14 08:31:47;;;;;;;5.13;4.13;;;19.40;99.90;;;;;;5075096;28;20497;-73
2022/06/14 08:34:19;;;;;;;6.13;4.10;;;19.50;99.90;;;;;;5073969;28;21054;-74
2022/06/14 08:36:52;;;;;;;6.73;4.57;;;19.60;99.90;;;;;;5074129;28;20486;-73
2022/06/14 08:39:26;;;;;;;6.33;4.03;;;19.70;99.90;;;;;;5073893;28;20462;-73
2022/06/14 08:42:04;;;;;;;6.80;4.10;;;19.60;99.30;;;;;;5074314;28;20458;-74
2022/06/14 08:44:36;;;;;;;5.63;3.90;;;19.70;99.90;;;;;;5074014;28;20884;-74
2022/06/14 08:47:10;;;;;;;4.97;3.67;;;19.60;99.90;;;;;;5058452;28;20478;-74
2022/06/14 08:49:47;;;;;;;9.23;4.10;;;19.60;99.90;;;;;;5053228;28;20461;-74
2022/06/14 08:52:50;;;;;;;8.73;3.80;;;19.70;99.90;;;;;;5054749;28;20911;-74
2022/06/14 08:55:55;;;;;;;4.50;3.80;;;19.90;99.90;;;;;;5053473;28;21035;-73
2022/06/14 08:58:41;;;;;;;4.27;3.87;;;20.10;99.90;;;;;;5054861;28;20968;-78
2022/06/14 09:01:15;;;;;;;4.00;3.70;;;20.30;99.90;;;;;;5052681;28;20466;-75
2022/06/14 09:04:05;;;;;;;5.60;4.13;;;20.50;99.90;;;;;;5054550;28;20813;-74
2022/06/14 09:06:52;;;;;;;4.80;3.50;;;20.70;99.90;;;;;;5054487;28;20487;-77
2022/06/14 09:09:54;;;;;;;6.80;4.33;;;20.80;99.80;;;;;;5053585;28;20499;-75
2022/06/14 09:13:03;;;;;;;7.90;3.83;;;20.90;99.90;;;;;;5054569;28;20470;-76
2022/06/14 09:16:05;;;;;;;3.77;3.33;;;21.10;97.30;;;;;;5055744;28;20502;-75
2022/06/14 09:18:50;;;;;;;4.60;3.57;;;21.10;98.20;;;;;;5029388;28;20478;-77
2022/06/14 09:21:29;;;;;;;5.87;3.57;;;21.20;98.20;;;;;;5054367;28;20550;-76
2022/06/14 09:24:14;;;;;;;4.40;3.67;;;21.30;99.10;;;;;;5054593;28;20451;-75
2022/06/14 09:27:09;;;;;;;4.20;3.23;;;21.50;96.40;;;;;;5054457;28;20479;-75
2022/06/14 09:30:06;;;;;;;6.53;3.30;;;21.50;96.80;;;;;;5046080;28;20467;-75
2022/06/14 09:33:10;;;;;;;5.10;3.33;;;21.60;97.00;;;;;;5053924;28;20474;-76
2022/06/14 09:36:05;;;;;;;4.83;3.10;;;21.80;97.90;;;;;;5053271;28;20494;-73
2022/06/14 09:39:17;;;;;;;5.80;3.50;;;22.10;98.80;;;;;;5053119;28;20537;-75
2022/06/14 09:42:16;;;;;;;5.10;3.53;;;22.40;97.70;;;;;;5024780;28;20463;-76
2022/06/14 09:45:22;;;;;;;4.13;3.50;;;22.60;97.70;;;;;;5053694;28;20818;-76
2022/06/14 09:48:07;;;;;;;3.47;2.93;;;23.00;98.10;;;;;;5053252;28;20558;-75
2022/06/14 09:51:10;;;;;;;5.83;3.10;;;23.30;96.80;;;;;;5052933;28;20459;-74
2022/06/14 09:54:13;;;;;;;4.10;3.27;;;23.40;96.30;;;;;;5032695;28;20997;-73
2022/06/14 09:56:58;;;;;;;5.03;3.37;;;23.70;98.20;;;;;;5051959;28;21054;-73
2022/06/14 10:00:01;;;;;;;8.07;3.37;;;24.00;96.20;;;;;;5054795;28;20459;-79
2022/06/14 10:02:38;;;;;;;5.30;2.97;;;24.30;97.40;;;;;;5051632;28;20463;-74
2022/06/14 10:05:24;;;;;;;3.80;2.70;;;24.40;93.10;;;;;;5051765;28;20455;-73
2022/06/14 10:08:23;;;;;;;3.93;3.00;;;24.40;94.10;;;;;;5051638;28;20494;-73
2022/06/14 10:11:08;;;;;;;2.90;2.53;;;24.40;95.00;;;;;;5051833;28;20464;-73
2022/06/14 10:14:22;;;;;;;3.60;2.73;;;24.30;90.90;;;;;;5051436;28;20835;-72
2022/06/14 10:17:10;;;;;;;4.93;3.10;;;24.30;94.70;;;;;;5019816;28;20487;-72
2022/06/14 10:19:50;;;;;;;3.93;2.70;;;24.30;94.20;;;;;;5050945;28;20468;-73
2022/06/14 10:22:27;;;;;;;5.73;3.50;;;24.30;93.30;;;;;;5051135;28;20463;-73
2022/06/14 10:24:59;;;;;;;4.50;3.00;;;24.30;93.60;;;;;;5051623;28;20455;-73
2022/06/14 10:30:35;;;;;;;5.00;3.30;;;24.40;94.50;;;;;;5068033;28;20453;-73
2022/06/14 10:33:29;;;;;;;4.20;3.13;;;24.50;94.00;;;;;;5070927;28;20461;-72
2022/06/14 10:36:24;;;;;;;3.97;3.13;;;24.50;93.10;;;;;;5065332;28;21009;-72
2022/06/14 10:39:27;;;;;;;6.03;3.00;;;24.60;92.50;;;;;;5070472;28;20463;-72
2022/06/14 10:42:01;;;;;;;4.27;3.30;;;24.70;95.00;;;;;;5071361;28;20469;-72
2022/06/14 10:44:37;;;;;;;5.03;3.07;;;24.90;94.40;;;;;;5070943;28;21136;-72
2022/06/14 10:47:11;;;;;;;4.73;2.90;;;25.10;95.10;;;;;;5070598;28;20846;-72
2022/06/14 10:50:13;;;;;;;4.20;3.40;;;25.00;90.00;;;;;;5070405;28;20843;-73
2022/06/14 10:53:09;;;;;;;3.50;3.20;;;24.80;92.00;;;;;;5059513;28;20458;-73
2022/06/14 10:55:55;;;;;;;3.53;2.77;;;24.80;90.40;;;;;;5057840;28;20497;-72
2022/06/14 10:58:50;;;;;;;3.50;3.20;;;24.80;87.70;;;;;;5069052;28;20511;-73
2022/06/14 11:01:29;;;;;;;5.23;3.13;;;24.90;90.90;;;;;;5068667;28;20462;-73
2022/06/14 11:04:00;;;;;;;5.40;3.07;;;25.00;92.90;;;;;;5070171;28;20465;-72
2022/06/14 11:06:59;;;;;;;3.60;3.30;;;25.20;93.70;;;;;;5070424;28;20501;-76
2022/06/14 11:09:36;;;;;;;4.83;3.10;;;25.40;93.30;;;;;;5057600;28;20476;-74
2022/06/14 11:12:30;;;;;;;3.53;2.97;;;25.60;91.60;;;;;;5069546;28;20458;-78
2022/06/14 11:15:04;;;;;;;3.20;2.90;;;25.80;94.00;;;;;;5069622;28;20841;-78
2022/06/14 11:18:00;;;;;;;2.80;2.60;;;25.90;91.50;;;;;;5070276;28;20539;-78
2022/06/14 11:20:38;;;;;;;4.77;2.50;;;25.80;87.90;;;;;;5071898;28;20454;-80
2022/06/14 11:23:12;;;;;;;3.60;2.70;;;25.70;90.50;;;;;;5070126;28;20454;-77
2022/06/14 11:25:44;;;;;;;3.97;2.47;;;25.70;89.80;;;;;;5068991;28;20454;-78
2022/06/14 11:28:22;;;;;;;3.50;3.20;;;25.60;89.60;;;;;;5069303;28;20543;-77
2022/06/14 11:30:57;;;;;;;3.47;2.57;;;25.70;87.80;;;;;;5069684;28;20508;-77
2022/06/14 11:33:34;;;;;;;2.97;2.70;;;25.70;88.60;;;;;;5070034;28;20458;-79
2022/06/14 11:36:20;;;;;;;3.30;2.50;;;25.90;89.40;;;;;;5071325;28;21027;-79
2022/06/14 11:39:01;;;;;;;3.17;2.60;;;26.10;89.90;;;;;;5069931;28;20454;-72
2022/06/14 11:41:34;;;;;;;4.47;3.07;;;26.20;85.10;;;;;;5069925;28;20461;-74
2022/06/14 11:44:19;;;;;;;3.40;3.10;;;26.10;89.20;;;;;;5069574;28;20842;-77
2022/06/14 11:46:55;;;;;;;4.00;2.90;;;26.20;91.20;;;;;;5070197;28;20498;-77
2022/06/14 11:49:30;;;;;;;3.60;2.87;;;26.20;90.70;;;;;;5068602;28;20809;-78
2022/06/14 11:52:10;;;;;;;3.30;3.00;;;26.10;82.10;;;;;;5069413;28;20591;-78
2022/06/14 11:54:49;;;;;;;4.40;4.00;;;26.00;86.60;;;;;;5069565;28;20458;-78
2022/06/14 11:57:21;;;;;;;3.17;2.47;;;25.60;82.10;;;;;;5069442;28;20486;-77
2022/06/14 12:00:09;;;;;;;5.60;2.70;;;25.20;84.80;;;;;;5069893;28;20853;-80
2022/06/14 12:02:43;;;;;;;4.20;3.80;;;25.40;90.70;;;;;;5069995;28;20470;-79
2022/06/14 12:05:24;;;;;;;4.00;2.70;;;25.60;84.10;;;;;;5069924;28;20841;-81
2022/06/14 12:08:00;;;;;;;3.20;2.30;;;25.70;86.00;;;;;;5069877;28;21024;-73
2022/06/14 12:10:55;;;;;;;5.03;2.90;;;25.80;83.50;;;;;;5069382;28;20968;-72
2022/06/14 12:13:39;;;;;;;3.10;2.80;;;26.10;86.70;;;;;;5064636;28;20702;-73
2022/06/14 12:16:13;;;;;;;4.57;2.50;;;26.40;86.20;;;;;;5068254;28;20575;-73
2022/06/14 12:18:44;;;;;;;9.10;3.73;;;26.60;83.50;;;;;;5068577;28;20462;-74
2022/06/14 12:21:16;;;;;;;3.57;2.57;;;26.60;85.40;;;;;;5068627;28;20459;-75
2022/06/14 12:23:48;;;;;;;2.80;2.60;;;26.70;80.40;;;;;;5068905;28;20459;-76
2022/06/14 12:26:36;;;;;;;3.30;2.80;;;26.70;79.50;;;;;;5068283;28;20472;-72
2022/06/14 12:29:14;;;;;;;3.10;2.80;;;26.60;84.80;;;;;;5068296;28;20482;-75
2022/06/14 12:31:56;;;;;;;3.83;3.50;;;26.40;86.90;;;;;;5069471;28;20462;-74
2022/06/14 12:34:28;;;;;;;3.23;2.77;;;26.50;86.20;;;;;;5069240;28;20462;-74
2022/06/14 12:37:05;;;;;;;3.87;3.00;;;26.70;84.40;;;;;;5071696;28;20490;-77
2022/06/14 12:39:39;;;;;;;3.77;2.63;;;26.70;82.50;;;;;;5072835;28;20461;-77
2022/06/14 12:42:13;;;;;;;5.43;2.73;;;26.90;85.50;;;;;;5072622;28;20454;-77
2022/06/14 12:44:55;;;;;;;3.43;2.23;;;26.80;80.00;;;;;;5073024;28;20554;-76
2022/06/14 12:47:28;;;;;;;2.53;2.33;;;26.90;83.00;;;;;;5072553;28;20494;-77
2022/06/14 12:50:05;;;;;;;2.93;2.50;;;27.00;79.10;;;;;;5056227;28;20883;-77
2022/06/14 12:52:35;;;;;;;6.27;2.80;;;27.10;76.10;;;;;;5052041;28;20467;-76
2022/06/14 12:55:12;;;;;;;3.03;2.50;;;26.80;73.80;;;;;;5052196;28;20483;-76
2022/06/14 12:57:56;;;;;;;2.73;2.33;;;26.60;79.40;;;;;;5056262;28;20862;-76
2022/06/14 13:00:34;;;;;;;3.53;2.40;;;26.70;82.20;;;;;;5070151;28;20462;-76
2022/06/14 13:03:06;;;;;;;2.50;2.30;;;26.90;78.50;;;;;;5071681;28;20488;-76
2022/06/14 13:05:39;;;;;;;2.40;2.20;;;27.10;79.00;;;;;;5072107;28;20461;-74
2022/06/14 13:08:18;;;;;;;4.50;2.47;;;27.10;74.80;;;;;;5070910;28;20482;-73
2022/06/14 13:10:58;;;;;;;3.27;2.70;;;27.00;81.30;;;;;;5072681;28;20458;-76
2022/06/14 13:13:53;;;;;;;2.70;2.10;;;27.20;75.10;;;;;;5073592;28;20464;-76
2022/06/14 13:16:32;;;;;;;2.53;2.33;;;27.40;78.00;;;;;;5071931;28;20982;-77
2022/06/14 13:19:08;;;;;;;2.40;2.03;;;27.60;77.10;;;;;;5071233;28;20456;-73
2022/06/14 13:21:50;;;;;;;5.73;2.53;;;27.80;77.10;;;;;;5071780;28;20491;-73
2022/06/14 13:24:24;;;;;;;3.93;2.50;;;27.90;75.80;;;;;;5071274;28;21022;-73
2022/06/14 13:27:00;;;;;;;2.77;2.43;;;27.70;70.80;;;;;;5071542;28;20861;-75
2022/06/14 13:29:47;;;;;;;2.77;2.20;;;27.40;76.10;;;;;;5071545;28;20463;-73
2022/06/14 13:32:36;;;;;;;3.33;2.50;;;27.30;78.40;;;;;;5064167;28;20471;-74
2022/06/14 13:35:28;;;;;;;2.50;2.30;;;27.50;79.70;;;;;;5050672;28;20951;-74
2022/06/14 13:37:59;;;;;;;3.73;2.40;;;27.50;73.10;;;;;;5050518;28;20512;-74
2022/06/14 13:40:31;;;;;;;3.73;2.50;;;27.40;79.00;;;;;;5051162;28;20471;-74